Time;durP1;ratioP1;P1;durP2;ratioP2;P2;SDS_P1;SDS_P2;PMS_P1;PMS_P2;Temp;Humidity;BMP_temperature;BMP_pressure;BME280_temperature;BME280_humidity;BME280_pressure;Samples;Min_cycle;Max_cycle;Signal;HPM_P1;HPM_P2
2022/06/17 00:01:59;;;;;;;16.42;10.38;;;;;;;21.86;61.03;100419.81;5090900;28;20048;-67
2022/06/17 00:04:25;;;;;;;25.02;10.85;;;;;;;21.74;60.98;100399.94;5085035;28;20143;-68
2022/06/17 00:06:56;;;;;;;15.35;10.70;;;;;;;21.76;60.80;100391.91;5088568;28;20044;-68
2022/06/17 00:09:26;;;;;;;18.98;10.05;;;;;;;21.97;60.47;100415.28;5079260;28;20521;-68
2022/06/17 00:11:53;;;;;;;16.73;10.98;;;;;;;21.92;60.96;100412.69;5082492;28;20123;-67
2022/06/17 00:14:31;;;;;;;14.18;10.32;;;;;;;21.92;60.40;100411.88;5087435;28;20506;-67
2022/06/17 00:17:07;;;;;;;17.52;11.40;;;;;;;21.91;60.92;100416.69;5087900;28;20414;-67
2022/06/17 00:19:34;;;;;;;18.90;9.32;;;;;;;21.88;60.94;100408.06;5081451;28;20074;-67
2022/06/17 00:22:01;;;;;;;16.85;10.27;;;;;;;22.03;60.53;100404.47;5092484;28;20082;-67
2022/06/17 00:24:31;;;;;;;18.20;9.85;;;;;;;22.10;60.65;100412.38;5086032;28;20102;-67
2022/06/17 00:26:59;;;;;;;19.48;11.43;;;;;;;22.08;60.50;100409.06;5083851;28;20140;-67
2022/06/17 00:29:28;;;;;;;17.23;12.48;;;;;;;22.03;60.48;100413.00;5085824;28;20135;-67
2022/06/17 00:31:56;;;;;;;17.88;11.02;;;;;;;21.83;60.63;100389.25;5080275;28;20067;-67
2022/06/17 00:34:23;;;;;;;17.80;11.02;;;;;;;21.79;61.08;100371.28;5082998;28;20044;-67
2022/06/17 00:36:57;;;;;;;22.17;10.38;;;;;;;21.77;60.96;100367.97;5086070;28;20131;-67
2022/06/17 00:39:27;;;;;;;17.55;10.88;;;;;;;21.94;60.81;100393.25;5092890;28;20131;-67
2022/06/17 00:42:03;;;;;;;16.73;10.38;;;;;;;21.85;60.94;100383.25;5084135;28;20529;-68
2022/06/17 00:44:54;;;;;;;14.75;10.07;;;;;;;21.76;60.92;100403.25;5084026;28;20048;-68
2022/06/17 00:47:45;;;;;;;19.55;11.55;;;;;;;21.78;61.02;100398.06;5087724;28;20090;-68
2022/06/17 00:50:39;;;;;;;17.50;12.15;;;;;;;21.62;60.71;100374.41;5082207;28;20080;-67
2022/06/17 00:53:29;;;;;;;13.30;11.65;;;;;;;21.72;61.34;100385.28;5090133;28;20123;-68
2022/06/17 00:56:17;;;;;;;18.10;10.32;;;;;;;21.70;61.04;100384.81;5074682;28;20610;-67
2022/06/17 00:59:04;;;;;;;15.73;10.77;;;;;;;21.66;60.82;100392.41;5076600;28;20131;-68
2022/06/17 01:02:17;;;;;;;15.15;9.70;;;;;;;21.60;61.43;100393.84;5080356;28;20257;-68
2022/06/17 01:04:48;;;;;;;22.52;11.13;;;;;;;21.55;61.22;100383.56;5083714;28;20399;-68
2022/06/17 01:07:22;;;;;;;17.27;10.73;;;;;;;21.65;61.50;100402.13;5082595;28;20080;-68
2022/06/17 01:10:08;;;;;;;18.40;10.85;;;;;;;21.53;61.38;100386.75;5083653;28;20076;-69
2022/06/17 01:13:02;;;;;;;11.25;9.48;;;;;;;21.58;61.41;100396.22;5081879;28;20059;-68
2022/06/17 01:15:32;;;;;;;15.43;9.57;;;;;;;21.57;61.66;100397.38;5080641;28;20144;-68
2022/06/17 01:17:59;;;;;;;;;;;;;;;21.35;61.64;100396.72;5085937;28;20454;-68
2022/06/17 01:20:29;;;;;;;18.83;10.07;;;;;;;21.51;61.41;100403.34;5090015;28;19928;-70
2022/06/17 01:23:05;;;;;;;13.60;10.00;;;;;;;21.49;61.29;100390.66;5085430;28;20076;-69
2022/06/17 01:25:37;;;;;;;18.30;10.10;;;;;;;21.52;61.38;100390.78;5087598;28;20121;-69
2022/06/17 01:28:10;;;;;;;12.23;9.80;;;;;;;21.51;61.33;100383.44;5088983;28;20142;-69
2022/06/17 01:30:44;;;;;;;17.27;11.02;;;;;;;21.49;61.09;100367.94;5080481;28;20431;-69
2022/06/17 01:33:50;;;;;;;16.45;9.35;;;;;;;21.51;61.23;100377.75;5086709;28;20816;-70
2022/06/17 01:36:18;;;;;;;15.05;9.90;;;;;;;21.52;61.34;100385.09;5027990;28;20496;-71
2022/06/17 01:38:53;;;;;;;15.23;10.35;;;;;;;21.46;60.98;100386.53;5079507;28;20134;-69
2022/06/17 01:41:25;;;;;;;13.25;9.80;;;;;;;21.55;61.02;100385.56;5085482;28;20074;-69
2022/06/17 01:43:58;;;;;;;17.92;9.70;;;;;;;21.41;61.25;100369.75;5087324;28;20466;-71
2022/06/17 01:46:37;;;;;;;16.23;9.52;;;;;;;21.33;60.84;100350.78;5082529;28;20050;-69
2022/06/17 01:49:14;;;;;;;19.35;10.45;;;;;;;21.53;60.90;100377.41;5079428;28;20094;-69
2022/06/17 01:51:46;;;;;;;13.02;10.27;;;;;;;21.52;60.99;100373.72;5077985;28;20134;-69
2022/06/17 01:54:25;;;;;;;12.23;10.00;;;;;;;21.56;61.00;100390.06;5081128;28;20713;-69
2022/06/17 01:56:55;;;;;;;15.30;9.45;;;;;;;21.55;60.64;100385.56;5088629;28;20139;-69
2022/06/17 01:59:39;;;;;;;14.07;10.48;;;;;;;21.51;60.67;100391.97;5089943;28;20058;-69
2022/06/17 02:02:10;;;;;;;12.95;9.80;;;;;;;21.41;60.94;100372.56;5086961;28;20105;-69
2022/06/17 02:04:41;;;;;;;11.52;9.70;;;;;;;21.51;60.93;100397.66;5083235;28;20052;-69
2022/06/17 02:07:19;;;;;;;13.73;9.18;;;;;;;21.52;61.05;100392.78;5086898;28;20087;-71
2022/06/17 02:09:47;;;;;;;10.82;9.00;;;;;;;21.49;60.95;100384.97;5083834;28;20469;-71
2022/06/17 02:12:16;;;;;;;14.90;9.30;;;;;;;21.45;61.19;100387.72;5083773;28;20083;-72
2022/06/17 02:14:46;;;;;;;14.75;9.20;;;;;;;21.53;61.07;100395.25;5073487;28;20055;-72
2022/06/17 02:17:14;;;;;;;11.75;9.02;;;;;;;21.52;61.16;100398.47;5076240;28;20044;-69
2022/06/17 02:19:45;;;;;;;15.57;9.15;;;;;;;21.52;61.45;100404.97;5090514;28;20056;-69
2022/06/17 02:22:25;;;;;;;11.80;9.23;;;;;;;21.51;60.97;100400.50;5088122;28;20123;-68
2022/06/17 02:24:57;;;;;;;14.95;9.02;;;;;;;21.47;61.31;100391.03;5089546;28;20048;-68
2022/06/17 02:27:25;;;;;;;12.88;9.05;;;;;;;21.42;61.33;100387.59;5080716;28;20080;-69
2022/06/17 02:29:53;;;;;;;15.63;9.10;;;;;;;21.34;61.46;100372.34;5091465;28;20139;-69
2022/06/17 02:32:20;;;;;;;12.85;9.02;;;;;;;21.45;61.36;100399.06;5080700;28;20048;-69
2022/06/17 02:35:11;;;;;;;11.65;8.70;;;;;;;21.38;61.14;100381.81;5091571;28;20058;-69
2022/06/17 02:37:38;;;;;;;14.57;9.73;;;;;;;21.36;61.02;100381.34;5087067;28;20439;-69
2022/06/17 02:40:33;;;;;;;14.07;9.88;;;;;;;21.35;61.25;100391.03;5091825;28;20079;-69
2022/06/17 02:43:04;;;;;;;15.10;10.02;;;;;;;21.33;61.68;100392.56;5085002;28;20075;-69
2022/06/17 02:45:35;;;;;;;21.05;10.55;;;;;;;21.25;61.52;100394.34;5087402;28;20131;-69
2022/06/17 02:48:10;;;;;;;19.10;10.82;;;;;;;21.21;61.78;100387.72;5084249;28;20066;-68
2022/06/17 02:50:37;;;;;;;19.92;10.23;;;;;;;21.12;61.55;100396.34;5086189;28;20056;-69
2022/06/17 02:53:04;;;;;;;14.18;10.45;;;;;;;20.99;61.41;100380.50;5085133;28;20126;-68
2022/06/17 02:55:38;;;;;;;16.83;10.90;;;;;;;21.13;61.55;100386.69;5089006;28;20510;-68
2022/06/17 02:58:29;;;;;;;27.08;11.27;;;;;;;21.11;61.75;100380.50;5084906;28;20481;-68
2022/06/17 03:00:58;;;;;;;13.00;9.55;;;;;;;21.05;61.79;100379.91;5081210;28;20076;-69
2022/06/17 03:03:26;;;;;;;18.83;9.88;;;;;;;20.96;61.90;100364.22;5078316;28;20131;-69
2022/06/17 03:05:53;;;;;;;16.60;10.85;;;;;;;21.08;62.06;100395.41;5083934;28;20044;-69
2022/06/17 03:08:23;;;;;;;22.20;10.35;;;;;;;21.08;61.88;100384.06;5107607;28;20463;-69
2022/06/17 03:10:51;;;;;;;;;;;;;;;20.84;62.35;100379.22;5100547;28;20075;-69
2022/06/17 03:13:29;;;;;;;21.50;10.52;;;;;;;20.79;62.21;100366.09;5073110;28;19929;-68
2022/06/17 03:15:59;;;;;;;16.55;10.63;;;;;;;20.90;62.41;100383.47;5082619;28;20151;-68
2022/06/17 03:18:27;;;;;;;14.45;12.27;;;;;;;20.86;62.38;100364.69;5086245;28;20071;-67
2022/06/17 03:20:56;;;;;;;24.05;10.52;;;;;;;20.70;62.54;100339.00;5091161;28;20139;-68
2022/06/17 03:23:28;;;;;;;19.15;10.52;;;;;;;20.79;62.62;100360.41;5090831;28;20135;-68
2022/06/17 03:26:02;;;;;;;14.52;9.48;;;;;;;20.85;62.54;100375.19;5088616;28;20127;-67
2022/06/17 03:28:35;;;;;;;13.98;10.07;;;;;;;20.87;62.45;100372.84;5092033;28;20136;-68
2022/06/17 03:31:37;;;;;;;17.40;10.90;;;;;;;20.81;62.79;100371.41;5083737;28;20144;-68
2022/06/17 03:34:15;;;;;;;18.42;11.25;;;;;;;20.86;62.62;100368.34;5010935;28;20153;-68
2022/06/17 03:36:48;;;;;;;13.13;9.40;;;;;;;20.89;62.81;100359.13;5084525;28;20076;-67
2022/06/17 03:39:40;;;;;;;11.68;10.52;;;;;;;20.87;62.83;100378.50;5093526;28;20090;-68
2022/06/17 03:42:12;;;;;;;25.45;12.15;;;;;;;20.80;62.83;100381.13;5089303;28;20450;-68
2022/06/17 03:45:06;;;;;;;23.70;12.30;;;;;;;20.76;63.09;100388.69;5091685;28;20040;-68
2022/06/17 03:48:00;;;;;;;19.15;11.80;;;;;;;20.84;63.09;100390.56;5069211;28;20590;-67
2022/06/17 03:50:33;;;;;;;15.40;11.75;;;;;;;20.85;63.44;100397.91;5091495;28;20048;-68
2022/06/17 03:53:04;;;;;;;18.90;10.90;;;;;;;20.88;63.58;100391.50;5087864;28;20075;-68
2022/06/17 03:55:32;;;;;;;19.00;10.32;;;;;;;20.87;63.65;100389.03;5092626;28;20091;-68
2022/06/17 03:58:01;;;;;;;28.45;11.27;;;;;;;20.87;63.66;100392.69;5087593;28;20056;-68
2022/06/17 04:00:42;;;;;;;18.33;10.50;;;;;;;20.73;63.67;100390.22;5087001;28;20052;-67
2022/06/17 04:03:15;;;;;;;19.38;10.32;;;;;;;20.82;63.54;100392.94;5078291;28;20449;-68
2022/06/17 04:05:44;;;;;;;15.50;10.57;;;;;;;20.90;63.27;100396.84;5090747;28;20131;-68
2022/06/17 04:08:12;;;;;;;25.13;9.45;;;;;;;20.87;63.23;100409.72;5090237;28;20127;-68
2022/06/17 04:10:39;;;;;;;11.70;10.63;;;;;;;20.77;63.23;100396.00;5093113;28;20080;-69
2022/06/17 04:13:14;;;;;;;18.70;10.68;;;;;;;20.79;63.69;100385.13;5074685;28;20131;-68
2022/06/17 04:15:53;;;;;;;17.33;11.50;;;;;;;20.77;63.46;100404.53;5098956;28;20076;-68
2022/06/17 04:18:19;;;;;;;18.77;10.23;;;;;;;20.58;63.68;100377.56;5083801;28;20072;-68
2022/06/17 04:20:54;;;;;;;16.77;11.30;;;;;;;20.63;63.72;100378.50;5086062;28;20503;-68
2022/06/17 04:23:27;;;;;;;22.60;11.75;;;;;;;20.67;63.87;100393.63;5077016;28;20045;-67
2022/06/17 04:26:06;;;;;;;27.27;12.77;;;;;;;20.75;63.87;100387.00;5084195;28;20076;-68
2022/06/17 04:28:53;;;;;;;16.70;12.03;;;;;;;20.76;63.58;100377.34;5086008;28;20494;-68
2022/06/17 04:31:23;;;;;;;19.20;12.02;;;;;;;20.59;64.03;100396.22;5082651;28;20079;-68
2022/06/17 04:33:54;;;;;;;13.40;11.02;;;;;;;20.63;64.04;100379.31;5089943;28;20051;-68
2022/06/17 04:36:30;;;;;;;20.50;10.55;;;;;;;20.70;63.97;100373.88;5086666;28;20478;-68
2022/06/17 04:39:02;;;;;;;31.65;12.52;;;;;;;20.69;63.89;100388.44;5081746;28;20084;-68
2022/06/17 04:41:36;;;;;;;15.68;11.85;;;;;;;20.50;64.22;100397.47;5085381;28;20139;-68
2022/06/17 04:44:05;;;;;;;15.60;11.20;;;;;;;20.46;64.07;100354.78;5085419;28;20050;-69
2022/06/17 04:46:39;;;;;;;15.35;11.30;;;;;;;20.55;64.09;100366.91;5084868;28;21346;-68
2022/06/17 04:49:15;;;;;;;14.75;11.40;;;;;;;20.68;64.16;100400.94;5086787;28;20096;-68
2022/06/17 04:51:42;;;;;;;20.33;11.27;;;;;;;20.61;64.14;100398.69;5084516;28;20131;-68
2022/06/17 04:54:10;;;;;;;18.92;11.48;;;;;;;20.70;64.58;100405.09;5091872;28;20131;-68
2022/06/17 04:56:42;;;;;;;13.38;11.50;;;;;;;20.59;64.54;100396.22;5084437;28;20127;-68
2022/06/17 04:59:18;;;;;;;15.57;10.43;;;;;;;20.66;64.35;100398.47;5079322;28;20131;-68
2022/06/17 05:01:46;;;;;;;27.00;12.63;;;;;;;20.64;64.55;100400.00;5085249;28;20052;-68
2022/06/17 05:04:14;;;;;;;18.80;11.13;;;;;;;20.59;64.65;100401.91;5092744;28;20130;-68
2022/06/17 05:06:40;;;;;;;22.27;12.02;;;;;;;20.59;64.97;100410.41;5088460;28;20048;-68
2022/06/17 05:09:20;;;;;;;15.10;11.50;;;;;;;20.43;64.62;100386.69;5093668;28;20052;-67
2022/06/17 05:11:50;;;;;;;15.45;11.93;;;;;;;20.68;64.53;100409.47;5080586;28;20080;-69
2022/06/17 05:14:35;;;;;;;16.90;10.90;;;;;;;20.66;64.32;100420.34;5080288;28;20124;-67
2022/06/17 05:17:02;;;;;;;19.35;11.98;;;;;;;20.72;64.62;100424.63;5077364;28;20084;-67
2022/06/17 05:19:29;;;;;;;15.40;11.57;;;;;;;20.74;64.60;100430.75;5076087;28;20059;-67
2022/06/17 05:21:57;;;;;;;14.60;11.27;;;;;;;20.65;64.39;100395.97;5076841;28;20079;-67
2022/06/17 05:24:25;;;;;;;17.95;10.95;;;;;;;20.71;64.60;100420.09;5079803;28;20550;-68
2022/06/17 05:26:51;;;;;;;24.23;11.77;;;;;;;20.60;64.26;100416.91;5084219;28;20518;-68
2022/06/17 05:29:18;;;;;;;18.38;10.18;;;;;;;20.58;64.79;100414.44;5081931;28;20123;-69
2022/06/17 05:31:49;;;;;;;20.67;11.63;;;;;;;20.60;64.45;100405.56;5084622;28;20123;-69
2022/06/17 05:34:16;;;;;;;22.40;10.55;;;;;;;20.52;64.67;100420.69;5089890;28;20050;-69
2022/06/17 05:36:43;;;;;;;11.43;10.25;;;;;;;20.55;64.51;100443.50;5088653;28;20127;-70
2022/06/17 05:39:10;;;;;;;20.80;11.75;;;;;;;20.55;64.81;100428.50;5089360;28;20406;-68
2022/06/17 05:41:37;;;;;;;23.45;11.43;;;;;;;20.57;64.63;100431.78;5079981;28;20110;-67
2022/06/17 05:44:04;;;;;;;24.40;12.15;;;;;;;20.52;64.97;100404.50;5089339;28;20079;-67
2022/06/17 05:46:31;;;;;;;23.30;11.43;;;;;;;20.71;64.85;100426.59;5092089;28;20131;-70
2022/06/17 05:48:58;;;;;;;15.40;11.98;;;;;;;20.61;65.02;100435.56;5083989;28;20051;-66
2022/06/17 05:51:27;;;;;;;27.88;13.05;;;;;;;20.50;64.98;100409.66;5087535;28;20134;-68
2022/06/17 05:53:54;;;;;;;17.55;11.27;;;;;;;20.43;65.29;100423.56;5087093;28;20202;-68
2022/06/17 05:56:21;;;;;;;16.33;11.68;;;;;;;20.44;65.19;100439.41;5083720;28;20135;-67
2022/06/17 05:58:48;;;;;;;23.63;12.85;;;;;;;20.31;65.36;100420.72;5082722;28;20147;-67
2022/06/17 06:01:14;;;;;;;14.65;11.20;;;;;;;20.08;65.06;100381.41;5077190;28;20135;-68
2022/06/17 06:03:41;;;;;;;20.33;10.70;;;;;;;20.36;65.36;100437.50;5077548;28;20506;-68
2022/06/17 06:06:08;;;;;;;19.63;11.50;;;;;;;20.46;65.34;100451.25;5074582;28;20048;-68
2022/06/17 06:08:35;;;;;;;18.27;11.23;;;;;;;20.47;65.34;100450.06;5079628;28;20131;-68
2022/06/17 06:11:04;;;;;;;20.42;11.68;;;;;;;20.32;65.36;100408.19;5084260;28;20127;-68
2022/06/17 06:13:31;;;;;;;26.83;13.63;;;;;;;20.51;64.63;100439.72;5088756;28;20106;-68
2022/06/17 06:16:00;;;;;;;17.15;13.70;;;;;;;20.64;64.96;100454.75;5082971;28;21069;-68
2022/06/17 06:18:31;;;;;;;22.25;12.30;;;;;;;20.56;65.22;100442.31;5085849;28;20075;-68
2022/06/17 06:21:00;;;;;;;24.83;11.60;;;;;;;20.57;65.04;100435.44;5080515;28;20127;-67
2022/06/17 06:23:26;;;;;;;17.88;11.85;;;;;;;20.50;64.87;100432.38;5074327;28;20565;-67
2022/06/17 06:25:53;;;;;;;24.80;12.65;;;;;;;20.29;65.11;100423.06;5085744;28;20101;-67
2022/06/17 06:28:26;;;;;;;19.88;13.93;;;;;;;20.57;65.05;100448.81;5083555;28;20130;-67
2022/06/17 06:31:06;;;;;;;16.70;13.63;;;;;;;20.43;65.38;100448.28;5076190;28;20783;-69
2022/06/17 06:33:34;;;;;;;17.98;12.93;;;;;;;20.39;65.29;100430.31;5076944;28;20054;-67
2022/06/17 06:36:00;;;;;;;20.20;12.88;;;;;;;20.46;65.41;100453.25;5089768;28;20087;-67
2022/06/17 06:38:27;;;;;;;18.52;14.73;;;;;;;20.30;65.76;100461.56;5076513;28;20131;-69
2022/06/17 06:40:54;;;;;;;24.75;15.38;;;;;;;20.18;65.77;100436.03;5082658;28;20080;-67
2022/06/17 06:43:21;;;;;;;16.67;11.75;;;;;;;20.21;65.65;100441.00;5083145;28;20150;-67
2022/06/17 06:45:51;;;;;;;17.75;13.77;;;;;;;20.27;65.64;100463.13;5072238;28;20083;-67
2022/06/17 06:48:20;;;;;;;19.75;14.63;;;;;;;20.30;65.64;100461.56;5071084;28;20578;-67
2022/06/17 06:50:48;;;;;;;22.95;13.05;;;;;;;20.30;65.67;100455.91;5078177;28;20139;-68
2022/06/17 06:53:15;;;;;;;23.08;14.77;;;;;;;20.24;65.39;100440.28;5081736;28;20533;-67
2022/06/17 06:55:42;;;;;;;18.48;16.45;;;;;;;20.35;65.73;100486.91;5095022;28;20140;-68
2022/06/17 06:58:12;;;;;;;19.35;13.30;;;;;;;20.37;65.45;100473.19;5089787;28;20091;-68
2022/06/17 07:00:43;;;;;;;20.48;13.25;;;;;;;20.44;65.21;100472.63;5076088;28;20198;-67
2022/06/17 07:03:11;;;;;;;24.73;13.10;;;;;;;20.50;65.00;100465.56;5075358;28;20079;-67
2022/06/17 07:05:41;;;;;;;21.25;13.20;;;;;;;20.54;65.00;100473.03;5074635;28;20131;-68
2022/06/17 07:08:10;;;;;;;;;;;;;;;20.58;65.06;100479.69;5074130;28;20106;-68
2022/06/17 07:10:38;;;;;;;29.42;14.32;;;;;;;20.63;64.60;100475.78;5078581;28;20012;-68
2022/06/17 07:13:08;;;;;;;29.00;15.77;;;;;;;20.75;64.71;100460.78;5085156;28;20481;-68
2022/06/17 07:15:39;;;;;;;;;;;;;;;20.70;65.14;100472.38;5083136;28;20103;-68
2022/06/17 07:18:17;;;;;;;23.95;13.25;;;;;;;20.88;65.02;100476.66;5079251;28;19959;-68
2022/06/17 07:20:46;;;;;;;20.17;15.52;;;;;;;21.12;64.60;100478.69;5077858;28;20443;-68
2022/06/17 07:23:22;;;;;;;18.08;14.70;;;;;;;21.25;63.98;100462.50;5077094;28;20513;-68
2022/06/17 07:25:50;;;;;;;19.25;14.85;;;;;;;21.48;63.82;100472.22;5074680;28;20579;-68
2022/06/17 07:28:23;;;;;;;29.25;14.32;;;;;;;21.59;63.34;100480.28;5080332;28;20275;-69
2022/06/17 07:30:51;;;;;;;19.05;13.20;;;;;;;21.60;62.90;100467.72;5081885;28;20403;-69
2022/06/17 07:33:20;;;;;;;18.38;14.90;;;;;;;21.68;63.26;100470.44;5080529;28;20075;-69
2022/06/17 07:35:49;;;;;;;25.50;14.70;;;;;;;21.42;62.93;100445.25;5088094;28;20045;-68
2022/06/17 07:41:05;;;;;;;19.15;15.30;;;;;;;21.72;62.75;100470.56;5087482;28;20048;-68
2022/06/17 07:43:32;;;;;;;25.05;18.45;;;;;;;21.93;62.39;100493.13;5080389;28;20076;-68
2022/06/17 07:46:01;;;;;;;18.75;14.02;;;;;;;22.12;62.25;100512.38;5079007;28;20066;-68
2022/06/17 07:48:28;;;;;;;23.65;13.98;;;;;;;22.27;62.07;100508.81;5077226;28;20130;-68
2022/06/17 07:50:59;;;;;;;34.28;14.90;;;;;;;22.43;61.89;100501.16;5076204;28;20138;-68
2022/06/17 07:53:30;;;;;;;24.77;14.40;;;;;;;22.55;61.34;100482.38;5078599;28;20056;-68
2022/06/17 07:55:59;;;;;;;24.52;14.80;;;;;;;22.58;61.13;100476.78;5088176;28;20083;-68
2022/06/17 07:58:26;;;;;;;23.80;13.20;;;;;;;22.63;61.27;100475.69;5091354;28;20134;-69
2022/06/17 08:00:55;;;;;;;19.75;14.70;;;;;;;22.81;61.10;100502.63;5084003;28;20155;-68
2022/06/17 08:03:22;;;;;;;24.50;15.57;;;;;;;22.68;60.37;100487.63;5086777;28;20473;-69
2022/06/17 08:05:53;;;;;;;30.55;15.23;;;;;;;22.37;60.76;100445.72;5081746;28;20050;-69
2022/06/17 08:08:23;;;;;;;20.33;14.07;;;;;;;22.43;60.81;100472.72;5081397;28;20057;-68
2022/06/17 08:10:52;;;;;;;30.98;14.93;;;;;;;22.30;60.72;100445.50;5078992;28;20136;-67
2022/06/17 08:13:20;;;;;;;20.67;15.98;;;;;;;22.59;60.45;100486.16;5091404;28;20485;-66
2022/06/17 08:15:49;;;;;;;24.77;17.20;;;;;;;22.73;60.64;100497.91;5083934;28;20075;-67
2022/06/17 08:18:16;;;;;;;20.92;14.05;;;;;;;22.85;59.92;100512.09;5091131;28;20051;-67
2022/06/17 08:20:43;;;;;;;22.95;15.80;;;;;;;22.89;60.24;100497.97;5090492;28;20590;-66
2022/06/17 08:23:10;;;;;;;23.10;15.45;;;;;;;22.87;59.65;100486.94;5091088;28;20130;-68
2022/06/17 08:25:38;;;;;;;21.42;14.10;;;;;;;22.96;59.78;100503.06;5089263;28;20132;-68
2022/06/17 08:28:08;;;;;;;26.30;15.60;;;;;;;22.85;59.99;100466.53;5088281;28;20690;-68
2022/06/17 08:30:40;;;;;;;24.17;15.48;;;;;;;23.03;59.62;100477.59;5089646;28;20064;-68
2022/06/17 08:33:07;;;;;;;20.85;13.20;;;;;;;23.26;59.72;100504.25;5085751;28;20143;-68
2022/06/17 08:35:58;;;;;;;19.92;13.63;;;;;;;23.62;59.18;100500.28;5089368;28;20420;-69
2022/06/17 08:38:31;;;;;;;16.52;12.23;;;;;;;23.77;58.53;100478.66;5085586;28;20135;-68
2022/06/17 08:41:03;;;;;;;22.20;11.68;;;;;;;23.93;58.63;100498.59;5079818;28;20091;-68
2022/06/17 08:44:03;;;;;;;18.75;12.73;;;;;;;24.06;58.31;100536.34;5082933;27;20097;-68
2022/06/17 08:46:55;;;;;;;24.27;12.50;;;;;;;24.24;58.05;100497.63;5084088;28;20051;-68
2022/06/17 08:49:41;;;;;;;20.25;13.15;;;;;;;24.69;57.46;100519.00;5095591;28;20117;-68
2022/06/17 08:52:32;;;;;;;18.65;11.80;;;;;;;25.15;56.87;100506.81;5098027;28;20074;-68
2022/06/17 08:55:24;;;;;;;13.15;11.45;;;;;;;25.49;56.08;100517.19;5087218;28;20127;-69
2022/06/17 08:58:02;;;;;;;16.45;12.10;;;;;;;25.64;55.75;100497.41;5084754;28;20140;-68
2022/06/17 09:00:55;;;;;;;16.77;12.38;;;;;;;25.71;55.49;100506.94;5083721;28;20130;-68
2022/06/17 09:03:46;;;;;;;16.25;12.43;;;;;;;25.82;54.57;100520.63;5094112;28;20130;-69
2022/06/17 09:06:16;;;;;;;18.42;11.95;;;;;;;26.18;54.33;100505.59;5089364;28;20044;-68
2022/06/17 09:09:10;;;;;;;16.67;12.95;;;;;;;26.49;53.82;100491.28;5082120;28;20139;-68
2022/06/17 09:12:11;;;;;;;15.65;11.38;;;;;;;26.55;53.68;100498.31;5084822;28;20135;-68
2022/06/17 09:15:05;;;;;;;17.17;12.45;;;;;;;26.56;53.56;100471.31;5068121;28;20051;-68
2022/06/17 09:18:01;;;;;;;15.65;12.57;;;;;;;26.86;52.99;100492.13;5087852;28;20051;-68
2022/06/17 09:20:39;;;;;;;19.40;12.20;;;;;;;27.27;52.52;100503.63;5085515;28;20087;-68
2022/06/17 09:23:15;;;;;;;15.60;12.70;;;;;;;27.45;51.73;100518.09;5094324;28;20056;-68
2022/06/17 09:25:47;;;;;;;18.65;11.85;;;;;;;27.60;51.17;100530.53;5088985;28;20135;-68
2022/06/17 09:28:35;;;;;;;14.70;12.23;;;;;;;27.53;51.51;100485.41;5090126;28;20135;-68
2022/06/17 09:31:18;;;;;;;24.52;12.80;;;;;;;27.88;50.45;100479.13;5095302;28;20345;-68
2022/06/17 09:33:58;;;;;;;18.63;11.13;;;;;;;28.10;50.16;100500.16;5090006;28;20048;-68
2022/06/17 09:36:41;;;;;;;14.57;11.50;;;;;;;28.11;49.79;100492.38;5085723;28;20049;-68
2022/06/17 09:39:28;;;;;;;17.80;11.05;;;;;;;28.17;48.99;100512.91;5085051;28;20054;-68
2022/06/17 09:42:04;;;;;;;21.50;13.23;;;;;;;27.77;49.02;100512.66;5088375;28;20062;-69
2022/06/17 09:44:43;;;;;;;15.48;11.18;;;;;;;27.69;49.52;100516.66;5076842;28;20088;-71
2022/06/17 09:47:25;;;;;;;19.95;12.18;;;;;;;27.76;49.58;100507.31;5083545;28;20087;-71
2022/06/17 09:49:52;;;;;;;16.23;11.80;;;;;;;27.95;48.82;100515.66;5089782;28;20131;-71
2022/06/17 09:52:33;;;;;;;17.10;12.93;;;;;;;27.62;48.72;100476.44;5091086;28;20063;-71
2022/06/17 09:55:45;;;;;;;17.30;11.45;;;;;;;27.57;49.40;100492.00;5092068;28;20131;-71
2022/06/17 09:58:19;;;;;;;20.85;12.85;;;;;;;27.46;48.72;100508.28;5074103;28;20133;-69
2022/06/17 10:00:55;;;;;;;17.70;12.35;;;;;;;27.29;48.79;100504.06;5079828;28;20071;-70
2022/06/17 10:03:35;;;;;;;16.25;11.73;;;;;;;27.11;49.42;100503.88;5079780;28;20106;-71
2022/06/17 10:06:34;;;;;;;19.90;13.05;;;;;;;26.71;49.61;100493.19;5076923;28;20133;-68
2022/06/17 10:09:19;;;;;;;13.75;11.75;;;;;;;26.75;49.64;100513.28;5078905;28;20091;-68
2022/06/17 10:12:03;;;;;;;23.25;10.68;;;;;;;26.89;49.88;100487.66;5091734;28;20464;-70
2022/06/17 10:15:03;;;;;;;18.23;11.88;;;;;;;27.31;49.17;100501.59;5081495;28;20122;-69
2022/06/17 10:21:11;;;;;;;16.50;11.32;;;;;;;27.03;49.09;100501.31;5064791;28;20127;-66
2022/06/17 10:23:50;;;;;;;21.98;11.93;;;;;;;26.96;49.38;100496.31;5090086;28;20094;-68
2022/06/17 10:26:35;;;;;;;21.38;11.88;;;;;;;27.43;49.23;100491.88;5082969;28;20119;-69
2022/06/17 10:29:29;;;;;;;19.02;12.27;;;;;;;28.05;48.61;100488.22;5089308;28;20094;-68
2022/06/17 10:31:56;;;;;;;20.27;12.02;;;;;;;28.36;47.46;100492.47;5078129;28;20136;-67
2022/06/17 10:34:27;;;;;;;14.82;11.57;;;;;;;28.82;46.44;100500.47;5088215;28;20578;-70
2022/06/17 10:37:00;;;;;;;16.05;13.15;;;;;;;28.98;45.89;100518.16;5092406;28;20853;-69
2022/06/17 10:39:31;;;;;;;15.65;11.95;;;;;;;28.98;46.30;100518.16;5081400;28;20071;-67
2022/06/17 10:41:58;;;;;;;14.35;11.55;;;;;;;29.14;45.85;100517.00;5085540;28;20131;-70
2022/06/17 10:44:28;;;;;;;18.27;11.43;;;;;;;29.39;44.78;100525.66;5088038;28;20518;-70
2022/06/17 10:47:15;;;;;;;12.95;10.88;;;;;;;29.61;44.77;100509.25;5091681;28;20105;-68
2022/06/17 10:50:07;;;;;;;18.60;12.43;;;;;;;29.96;44.29;100509.19;5099098;28;20128;-72
2022/06/17 10:52:39;;;;;;;14.27;11.15;;;;;;;30.57;44.38;100517.66;5082247;28;20585;-72
2022/06/17 10:55:17;;;;;;;22.75;10.80;;;;;;;30.74;43.20;100526.66;5083510;28;20461;-74
2022/06/17 10:58:05;;;;;;;18.92;11.55;;;;;;;30.82;42.99;100526.22;5094405;28;20048;-70
2022/06/17 11:00:34;;;;;;;14.85;11.52;;;;;;;30.88;42.23;100524.53;5081913;28;20053;-71
2022/06/17 11:03:24;;;;;;;14.43;9.48;;;;;;;31.05;42.13;100519.09;5083606;28;20128;-73
2022/06/17 11:05:54;;;;;;;14.35;12.93;;;;;;;31.42;41.11;100534.91;5075404;28;20512;-69
2022/06/17 11:08:26;;;;;;;15.85;10.10;;;;;;;31.91;40.92;100544.41;5076938;28;20102;-69
2022/06/17 11:10:57;;;;;;;15.43;11.27;;;;;;;32.36;40.43;100547.25;5078316;28;20517;-67
2022/06/17 11:13:25;;;;;;;28.08;14.60;;;;;;;32.20;40.32;100542.84;5074457;28;20129;-68
2022/06/17 11:15:56;;;;;;;21.30;15.70;;;;;;;31.73;40.93;100556.09;5080638;28;20076;-67
2022/06/17 11:18:25;;;;;;;22.52;12.02;;;;;;;31.61;41.34;100577.63;5080330;28;20151;-68
2022/06/17 11:21:04;;;;;;;14.60;11.48;;;;;;;31.57;41.47;100579.75;5091024;28;20505;-67
2022/06/17 11:23:38;;;;;;;18.08;12.68;;;;;;;31.59;41.17;100597.44;5084105;28;20083;-68
2022/06/17 11:26:15;;;;;;;19.92;12.82;;;;;;;31.55;41.31;100579.31;5089873;28;20131;-68
2022/06/17 11:28:48;;;;;;;16.70;12.27;;;;;;;31.69;41.31;100578.41;5075464;28;20077;-68
2022/06/17 11:31:30;;;;;;;17.83;11.30;;;;;;;31.60;41.61;100565.28;5076788;28;20044;-67
2022/06/17 11:34:08;;;;;;;16.75;13.15;;;;;;;31.64;40.86;100565.25;5084974;28;20055;-68
2022/06/17 11:36:48;;;;;;;16.13;11.43;;;;;;;31.59;40.83;100559.91;5097335;28;20138;-68
2022/06/17 11:39:34;;;;;;;21.42;11.63;;;;;;;31.12;41.28;100530.56;5080826;28;20566;-68
2022/06/17 11:42:24;;;;;;;17.20;11.48;;;;;;;31.36;41.59;100560.53;5089881;28;20056;-68
2022/06/17 11:44:56;;;;;;;15.93;11.40;;;;;;;31.50;41.35;100580.59;5083065;28;20135;-68
2022/06/17 11:47:26;;;;;;;22.38;11.88;;;;;;;31.40;40.88;100578.63;5078710;28;20087;-68
2022/06/17 11:49:57;;;;;;;20.38;11.38;;;;;;;31.47;40.54;100580.63;5086723;28;21296;-68
2022/06/17 11:52:34;;;;;;;18.50;11.40;;;;;;;31.46;40.69;100584.78;5084148;28;20094;-68